Station FSKM2 - 8574728 - Francis Scott Key Bridge, MD Image indicating link to RSS feed of recent meteorological observations for station FSKM2


Conditions at FSKM2 as of
(2:48 pm EDT)
1848 GMT on 06/14/2024:
     

Click on the graph icon in the table below to see a time series plot of the last five days of that observation.

5-day plot - Wind Direction Wind Direction (WDIR): SE ( 130 deg true )
5-day plot - Wind Speed Wind Speed (WSPD): 9.9 kts
5-day plot - Wind Gust Wind Gust (GST): 11.1 kts
5-day plot - Air Temperature Air Temperature (ATMP): 79.3 °F
5-day plot - Wind Speed at 10 Meters Wind Speed at 10 meters (WSPD10M): 11.7 kts
5-day plot - Wind Speed at 20 Meters Wind Speed at 20 meters (WSPD20M): 11.7 kts
5-day plot -  Wind Speed, Wind Gust and Atmospheric Pressure Combined plot of Wind Speed, Gust, and Air Pressure
NOS Water Level Observation Network Water Level
Previous observations
TIME
(EDT)
5-day plot - Wind Direction
WDIR
 
5-day plot - Wind Speed
WSPD
kts
5-day plot - Wind Gust
GST
kts
5-day plot - Wave Height
WVHT
ft
5-day plot - Dominant Wave Period
DPD
sec
5-day plot - Average Wave Period
APD
sec
5-day plot - Mean Wave Direction
MWD
 
5-day plot - Atmospheric Pressure
PRES
in
5-day plot - Pressure Tendency
PTDY
in
5-day plot - Air Temperature
ATMP
°F
5-day plot - Water Temperature
WTMP
°F
5-day plot - Dew Point
DEWP
°F
5-day plot - Salinity
SAL
psu
5-day plot - Visibility
VIS
nmi
5-day plot - Tide (above MLLW)
TIDE
ft
2024-06-14 02:42 pm SE 12.0 13.0------ 79.2-----
2024-06-14 02:36 pm SE 12.0 13.0------ 79.9-----
2024-06-14 02:30 pm SE 13.0 15.0------ 79.5-----
2024-06-14 02:24 pm SE 12.0 14.0------ 79.5-----
2024-06-14 02:18 pm SE 12.0 14.0------ 79.7-----
2024-06-14 02:12 pm SE 12.0 13.0------ 79.7-----
2024-06-14 02:06 pm SE 11.1 12.0------ 79.7-----
2024-06-14 02:00 pmESE 9.9 11.1------ 80.2-----
2024-06-14 01:54 pm SE 12.0 14.0------ 79.2-----
2024-06-14 01:48 pm SE 11.1 13.0------ 79.9-----
2024-06-14 01:42 pm SE 11.1 12.0------ 80.1-----
2024-06-14 01:36 pmESE 11.1 12.0------ 80.2-----
2024-06-14 01:30 pm SE 11.1 13.0------ 80.4-----
2024-06-14 01:24 pm SE 11.1 12.0------ 79.5-----
2024-06-14 01:18 pm SE 9.9 11.1------ 80.1-----
2024-06-14 01:12 pm SE 11.1 12.0------ 79.9-----
2024-06-14 01:06 pm SE 11.1 12.0------ 80.1-----
2024-06-14 01:00 pm SE 11.1 12.0------ 79.3-----
2024-06-14 12:54 pm SE 9.9 12.0------ 79.7-----
2024-06-14 12:48 pm SE 8.9 11.1------------
2024-06-14 12:42 pmESE 9.9 11.1------------
2024-06-14 12:36 pm SE 11.1 12.0------------
2024-06-14 12:30 pm--------- 79.2-----
2024-06-14 12:24 pm--------- 79.2-----
2024-06-14 12:18 pm SE 11.1 12.0------ 78.4-----
2024-06-14 12:12 pm SE 12.0 14.0------ 78.3-----
2024-06-14 12:06 pm SE 13.0 14.0------ 77.5-----
2024-06-14 12:00 pm SE 12.0 13.0------ 78.1-----
2024-06-14 11:54 am SE 11.1 12.0------ 77.4-----
2024-06-14 11:48 am SE 11.1 12.0------ 77.5-----
2024-06-14 11:42 am SE 12.0 13.0------ 77.2-----
2024-06-14 11:36 am SE 12.0 13.0------ 77.0-----
2024-06-14 11:30 am SE 9.9 12.0------ 77.2-----
2024-06-14 11:24 am SE 9.9 11.1------ 77.5-----
2024-06-14 11:18 am SE 9.9 11.1------ 77.4-----
2024-06-14 11:12 am SE 9.9 11.1------ 77.4-----
2024-06-14 11:06 am SE 9.9 12.0------ 77.4-----
2024-06-14 11:00 amESE 7.0 8.0------------
2024-06-14 10:54 amESE 6.0 7.0------------
2024-06-14 10:48 am SE 6.0 6.0------ 78.1-----
2024-06-14 10:42 amESE 5.1 5.1------ 77.4-----
2024-06-14 10:36 amESE 5.1 5.1------ 77.5-----
2024-06-14 10:30 amESE 5.1 5.1------ 77.0-----
2024-06-14 10:24 amESE 5.1 5.1------ 77.4-----
2024-06-14 10:18 amESE 1.9 4.1------ 79.2-----
2024-06-14 10:12 am- 0.0 0.0------ 79.7-----
2024-06-14 10:06 am E 1.0 1.9------ 78.3-----
2024-06-14 10:00 am S 2.9 4.1------ 77.5-----
2024-06-14 09:54 am S 1.9 2.9------ 77.7-----
2024-06-14 09:48 am S 1.9 4.1------ 77.2-----
2024-06-14 09:42 amWSW 4.1 5.1------ 76.8-----
2024-06-14 09:36 am SW 5.1 6.0------ 76.6-----
2024-06-14 09:30 amWSW 4.1 5.1------ 76.3-----
2024-06-14 09:24 am SW 4.1 6.0------ 76.1-----
2024-06-14 09:18 amWSW 4.1 5.1------ 75.9-----
2024-06-14 09:12 amWSW 4.1 4.1------ 75.7-----
2024-06-14 09:06 amSSW 2.9 4.1------ 75.7-----
2024-06-14 09:00 amWSW 4.1 6.0------ 75.2-----
2024-06-14 08:54 am SW 6.0 8.0------ 75.0-----
2024-06-14 08:48 am SW 7.0 8.0------ 74.8-----
2024-06-14 08:42 am SW 4.1 5.1------ 74.7-----
2024-06-14 08:36 amWSW 4.1 5.1------ 74.5-----
2024-06-14 08:30 amWSW 5.1 6.0------ 74.1-----
2024-06-14 08:24 amWSW 5.1 6.0------ 73.9-----
2024-06-14 08:18 amWSW 5.1 7.0------ 73.6-----
2024-06-14 08:12 amWSW 6.0 7.0------ 73.4-----
2024-06-14 08:06 amWSW 6.0 7.0------ 73.2-----
2024-06-14 08:00 amWSW 4.1 5.1------ 73.0-----
2024-06-14 07:54 amWSW 2.9 4.1------ 73.0-----
2024-06-14 07:48 am SW 2.9 4.1------ 72.7-----
2024-06-14 07:42 amSSW 5.1 6.0------ 72.5-----
2024-06-14 07:36 amSSW 5.1 7.0------ 72.5-----
2024-06-14 07:30 amSSW 2.9 5.1------ 72.1-----
2024-06-14 07:24 am SW 2.9 4.1------ 72.1-----
2024-06-14 07:18 amSSW 2.9 5.1------ 72.0-----
2024-06-14 07:12 amSSW 4.1 5.1------ 71.8-----
2024-06-14 07:06 amSSW 5.1 6.0------ 71.4-----
2024-06-14 07:00 am S 5.1 6.0------ 71.4-----
2024-06-14 06:54 amSSW 4.1 5.1------ 71.4-----
2024-06-14 06:48 amSSW 4.1 5.1------ 71.4-----
2024-06-14 06:42 amSSW 5.1 6.0------ 71.4-----
2024-06-14 06:36 amSSW 2.9 5.1------ 71.6-----
2024-06-14 06:30 amSSW 2.9 4.1------ 71.6-----
2024-06-14 06:24 amSSW 2.9 4.1------ 71.6-----
2024-06-14 06:18 amSSW 1.9 2.9------ 71.6-----
2024-06-14 06:12 amSSW 4.1 5.1------ 71.8-----
2024-06-14 06:06 amSSW 4.1 5.1------ 72.1-----
2024-06-14 06:00 amSSW 5.1 6.0------ 72.3-----
2024-06-14 05:54 am S 6.0 8.0------ 72.3-----
2024-06-14 05:48 am S 6.0 8.0------ 72.1-----
2024-06-14 05:42 am S 6.0 7.0------ 72.3-----
2024-06-14 05:36 am S 6.0 8.9------ 72.3-----
2024-06-14 05:30 am S 6.0 8.0------ 72.0-----
2024-06-14 05:24 amSSW 5.1 7.0------ 72.0-----
2024-06-14 05:18 am S 4.1 5.1------ 72.0-----
2024-06-14 05:12 amSSW 4.1 5.1------ 72.1-----
2024-06-14 05:06 amSSW 4.1 5.1------ 72.3-----
2024-06-14 05:00 amSSW 4.1 5.1------ 72.5-----
2024-06-14 04:54 am S 5.1 7.0------ 72.5-----
2024-06-14 04:48 amSSW 4.1 5.1------ 72.7-----
2024-06-14 04:42 amSSW 4.1 5.1------ 72.7-----
2024-06-14 04:36 amSSW 4.1 6.0------ 72.9-----
2024-06-14 04:30 amSSW 5.1 6.0------ 73.2-----
2024-06-14 04:24 amSSW 7.0 8.9------ 73.8-----
2024-06-14 04:18 amSSW 6.0 8.0------ 74.1-----
2024-06-14 04:12 am S 8.0 9.9------ 74.3-----
2024-06-14 04:06 am S 8.0 9.9------ 74.3-----
2024-06-14 04:00 am S 8.9 11.1------ 74.3-----
2024-06-14 03:54 am S 8.0 9.9------ 74.1-----
2024-06-14 03:48 am S 8.0 8.9------ 74.3-----
2024-06-14 03:42 am S 8.0 8.9------ 74.3-----
2024-06-14 03:36 am S 7.0 9.9------ 74.3-----
2024-06-14 03:30 am S 6.0 7.0------ 74.3-----
2024-06-14 03:24 amSSE 8.0 8.9------ 74.1-----
2024-06-14 03:18 amSSE 8.0 8.9------ 74.1-----
2024-06-14 03:12 am S 7.0 8.0------ 74.3-----
2024-06-14 03:06 am S 8.9 9.9------ 74.3-----
2024-06-14 03:00 am S 8.9 9.9------ 74.3-----
2024-06-14 02:54 am S 8.9 9.9------ 74.3-----
2024-06-14 02:48 am S 8.0 8.9------ 74.3-----
2024-06-14 02:42 am S 8.0 8.9------ 74.3-----
2024-06-14 02:36 am S 8.0 8.9------ 74.5-----
2024-06-14 02:30 am S 7.0 8.9------ 74.3-----
2024-06-14 02:24 am S 8.0 9.9------ 74.1-----
2024-06-14 02:18 am S 8.0 8.9------ 74.1-----
2024-06-14 02:12 am S 8.9 11.1------ 74.1-----
2024-06-14 02:06 am S 8.0 8.9------ 73.9-----
2024-06-14 02:00 am S 8.0 9.9------ 73.9-----
2024-06-14 01:54 am S 9.9 11.1------ 73.9-----
2024-06-14 01:48 am S 13.0 14.0------ 73.9-----
2024-06-14 01:42 am S 12.0 14.0------ 74.1-----
2024-06-14 01:36 am S 13.0 15.0------ 74.5-----
2024-06-14 01:30 am S 8.9 11.1------ 75.4-----
2024-06-14 01:24 am S 7.0 8.0------ 75.4-----
2024-06-14 01:18 amSSW 6.0 8.0------------
2024-06-14 01:12 am SW 5.1 7.0------------
2024-06-14 01:06 amWSW 6.0 8.0------------
2024-06-14 01:00 am W 8.9 9.9------ 76.1-----
2024-06-14 12:54 am W 8.9 8.9------ 76.5-----
2024-06-14 12:48 am W 6.0 8.0------ 76.5-----
2024-06-14 12:42 am W 6.0 8.9------ 76.6-----
2024-06-14 12:36 am W 5.1 6.0------ 76.6-----
2024-06-14 12:30 amWSW 5.1 6.0------ 76.8-----
2024-06-14 12:24 am SW 6.0 9.9------ 77.0-----
2024-06-14 12:18 amSSW 7.0 8.9------ 77.2-----
2024-06-14 12:12 amSSW 7.0 11.1------ 77.2-----
2024-06-14 12:06 amSSW 7.0 11.1------ 77.4-----
2024-06-14 12:00 amSSW 8.9 12.0------ 77.4-----
2024-06-13 11:54 pm S 7.0 9.9------ 77.0-----
2024-06-13 11:48 pm S 7.0 8.9------ 77.0-----
2024-06-13 11:42 pm S 7.0 8.0------ 76.6-----
2024-06-13 11:36 pm S 8.0 8.9------ 76.8-----
2024-06-13 11:30 pm S 7.0 8.0------ 76.6-----
2024-06-13 11:24 pm S 7.0 8.0------ 76.6-----
2024-06-13 11:18 pm S 8.9 11.1------ 76.8-----
2024-06-13 11:12 pm S 9.9 12.0------ 76.8-----
2024-06-13 11:06 pm S 9.9 12.0------ 76.8-----
2024-06-13 11:00 pm S 11.1 12.0------ 76.6-----
2024-06-13 10:54 pm S 9.9 12.0------ 76.6-----
2024-06-13 10:48 pm S 12.0 14.0------ 76.8-----
2024-06-13 10:42 pm S 11.1 12.0------ 76.5-----
2024-06-13 10:36 pm S 11.1 13.0------ 76.6-----
2024-06-13 10:30 pm S 12.0 15.0------ 76.6-----
2024-06-13 10:24 pm S 12.0 14.0------ 76.8-----
2024-06-13 10:18 pm S 12.0 13.0------ 76.6-----
2024-06-13 10:12 pm S 12.0 14.0------ 76.6-----
2024-06-13 10:06 pm S 12.0 15.0------ 76.6-----
2024-06-13 10:00 pm S 13.0 15.9------ 76.6-----
2024-06-13 09:54 pm S 12.0 13.0------ 76.6-----
2024-06-13 09:48 pm S 12.0 15.0------ 76.6-----
2024-06-13 09:42 pm S 14.0 18.1------ 76.8-----
2024-06-13 09:36 pm S 13.0 15.9------ 76.6-----
2024-06-13 09:30 pm S 13.0 15.0------ 76.8-----
2024-06-13 09:24 pm S 14.0 15.9------ 77.0-----
2024-06-13 09:18 pm S 13.0 15.9------ 77.2-----
2024-06-13 09:12 pm S 14.0 15.9------ 77.4-----
2024-06-13 09:06 pm S 13.0 14.0------ 77.2-----
2024-06-13 09:00 pm S 14.0 17.1------ 77.4-----
2024-06-13 08:54 pm S 14.0 15.9------ 77.5-----
2024-06-13 08:48 pm S 14.0 15.9------ 77.7-----
2024-06-13 08:42 pm S 14.0 15.9------ 77.7-----
2024-06-13 08:36 pm S 14.0 18.1------ 77.9-----
2024-06-13 08:30 pm S 15.0 17.1------ 77.9-----
2024-06-13 08:24 pm S 15.0 18.1------ 77.9-----
2024-06-13 08:18 pm S 15.0 17.1------ 77.9-----
2024-06-13 08:12 pm S 15.0 17.1------ 78.1-----
2024-06-13 08:06 pm S 15.0 19.0------ 78.1-----
2024-06-13 08:00 pm S 15.0 17.1------ 78.3-----
2024-06-13 07:54 pm S 15.9 18.1------ 78.4-----
2024-06-13 07:48 pm S 15.9 20.0------ 78.6-----
2024-06-13 07:42 pm S 15.9 19.0------ 79.0-----
2024-06-13 07:36 pm S 15.9 19.0------ 79.2-----
2024-06-13 07:30 pm S 15.9 18.1------ 79.0-----
2024-06-13 07:24 pm S 15.9 18.1------ 79.0-----
2024-06-13 07:00 pm S 19.0 22.0------------
2024-06-13 06:54 pm S 15.9 19.0------------
2024-06-13 06:48 pm S 15.9 19.0------------
2024-06-13 06:42 pm S 15.9 18.1------------
2024-06-13 06:36 pm S 13.0 15.9------------
2024-06-13 06:30 pm S 14.0 17.1------ 80.1-----
2024-06-13 06:24 pm S 15.0 17.1------ 80.2-----
2024-06-13 06:18 pm S 15.0 17.1------ 80.2-----
2024-06-13 06:12 pm S 12.0 15.0------ 80.2-----
2024-06-13 06:06 pm S 14.0 15.9------ 80.4-----
2024-06-13 06:00 pm S 17.1 18.1------------
2024-06-13 05:54 pmSSE 18.1 19.0------------
2024-06-13 05:48 pm S 15.9 18.1------ 80.8-----
2024-06-13 05:42 pm S 19.0 22.0------ 80.8-----
2024-06-13 05:36 pm S 17.1 20.0------ 81.1-----
2024-06-13 05:30 pm S 15.0 19.0------ 81.0-----
2024-06-13 05:24 pmSSE 15.9 18.1------ 81.5-----
2024-06-13 05:18 pm S 15.0 17.1------------
2024-06-13 05:12 pmSSE 15.0 15.9------------
2024-06-13 05:06 pmSSE 15.0 18.1------------
2024-06-13 05:00 pmSSE 15.0 18.1------ 80.2-----
2024-06-13 04:54 pmSSE 14.0 15.9------ 79.9-----
2024-06-13 04:48 pmSSE 14.0 15.9------ 80.1-----
2024-06-13 04:42 pmSSE 12.0 15.0------ 79.9-----
2024-06-13 04:36 pmSSE 15.0 15.9------ 80.2-----
2024-06-13 04:30 pmSSE 15.9 17.1------ 80.6-----
2024-06-13 04:24 pmSSE 14.0 15.0------ 80.2-----
2024-06-13 04:18 pmSSE 15.0 18.1------------
2024-06-13 04:12 pmSSE 15.0 15.9------------
2024-06-13 04:06 pmSSE 15.9 17.1------------
2024-06-13 04:00 pmSSE 15.0 17.1------ 80.2-----
2024-06-13 03:54 pmSSE 14.0 15.9------ 80.2-----
2024-06-13 03:48 pmSSE 13.0 15.0------ 80.2-----
2024-06-13 03:42 pmSSE 12.0 14.0------ 80.4-----
2024-06-13 03:36 pmSSE 12.0 14.0------ 80.6-----
2024-06-13 03:30 pmSSE 12.0 14.0------------
2024-06-13 03:24 pmSSE 13.0 15.0------------
2024-06-13 03:18 pmSSE 13.0 15.0------ 80.2-----
2024-06-13 03:12 pmSSE 13.0 15.0------ 80.1-----
2024-06-13 03:06 pmSSE 13.0 15.9------ 80.2-----
2024-06-13 03:00 pmSSE 13.0 14.0------ 79.7-----
2024-06-13 02:54 pm SE 11.1 15.0------ 80.1-----